Time;durP1;ratioP1;P1;durP2;ratioP2;P2;SDS_P1;SDS_P2;PMS_P1;PMS_P2;Temp;Humidity;BMP_temperature;BMP_pressure;BME280_temperature;BME280_humidity;BME280_pressure;Samples;Min_cycle;Max_cycle;Signal;HPM_P1;HPM_P2
2022/06/11 00:01:48;;;;;;;17.23;8.20;;;17.50;99.90;;;;;;5000808;28;20107;-87
2022/06/11 00:04:20;;;;;;;15.02;8.77;;;17.60;99.90;;;;;;5000956;28;20081;-86
2022/06/11 00:06:48;;;;;;;12.45;8.48;;;17.60;99.90;;;;;;4984935;28;20058;-86
2022/06/11 00:09:14;;;;;;;13.55;8.15;;;17.60;99.90;;;;;;5000819;28;20045;-86
2022/06/11 00:11:40;;;;;;;13.48;9.15;;;17.60;99.90;;;;;;4984684;28;20041;-86
2022/06/11 00:14:06;;;;;;;12.43;9.10;;;17.60;99.90;;;;;;5000606;28;20592;-86
2022/06/11 00:16:32;;;;;;;14.45;10.00;;;17.60;99.90;;;;;;5000649;28;20393;-87
2022/06/11 00:18:58;;;;;;;14.18;8.82;;;17.70;99.90;;;;;;5004077;28;20049;-87
2022/06/11 00:21:25;;;;;;;13.15;8.93;;;17.60;99.90;;;;;;5001162;28;20434;-86
2022/06/11 00:23:50;;;;;;;12.25;8.30;;;17.60;99.90;;;;;;5008559;28;20061;-87
2022/06/11 00:26:16;;;;;;;12.15;7.13;;;17.60;99.90;;;;;;5020982;28;20033;-89
2022/06/11 00:28:42;;;;;;;10.32;6.63;;;17.50;99.90;;;;;;5037932;28;20105;-86
2022/06/11 00:31:07;;;;;;;13.15;6.95;;;17.30;99.90;;;;;;5034333;28;20049;-87
2022/06/11 00:33:35;;;;;;;10.93;6.00;;;17.40;99.90;;;;;;5016567;28;20080;-86
2022/06/11 00:36:01;;;;;;;12.10;5.70;;;17.30;99.90;;;;;;5000836;28;20053;-87
2022/06/11 00:38:27;;;;;;;9.10;5.40;;;17.20;99.90;;;;;;5000032;28;20424;-86
2022/06/11 00:40:53;;;;;;;13.20;5.90;;;17.10;99.90;;;;;;5019507;28;20620;-86
2022/06/11 00:43:20;;;;;;;8.45;5.18;;;17.10;99.90;;;;;;4969230;28;20046;-85
2022/06/11 00:45:59;;;;;;;8.13;5.32;;;17.00;99.90;;;;;;5000430;28;20142;-84
2022/06/11 00:48:30;;;;;;;10.38;4.75;;;16.90;99.90;;;;;;4983538;28;20532;-86
2022/06/11 00:51:01;;;;;;;9.25;5.05;;;16.80;99.90;;;;;;4999887;28;20492;-86
2022/06/11 00:53:40;;;;;;;8.73;4.30;;;16.80;99.90;;;;;;5000453;28;20044;-86
2022/06/11 00:56:09;;;;;;;8.25;4.60;;;16.70;99.90;;;;;;5000400;28;20099;-86
2022/06/11 00:58:37;;;;;;;10.38;4.72;;;16.70;99.90;;;;;;4984576;28;20049;-86
2022/06/11 01:01:03;;;;;;;10.05;4.30;;;16.60;99.90;;;;;;4984333;28;20053;-87
2022/06/11 01:03:37;;;;;;;9.35;4.70;;;16.60;99.90;;;;;;5033526;28;20120;-86
2022/06/11 01:06:12;;;;;;;9.75;4.40;;;16.50;99.90;;;;;;5000448;28;20124;-86
2022/06/11 01:08:46;;;;;;;8.98;4.90;;;16.50;99.90;;;;;;5000151;28;20053;-86
2022/06/11 01:11:30;;;;;;;8.02;4.60;;;16.40;99.90;;;;;;5015846;28;20124;-86
2022/06/11 01:14:05;;;;;;;8.68;4.20;;;16.40;99.90;;;;;;5016124;28;20087;-86
2022/06/11 01:16:48;;;;;;;10.10;4.35;;;16.30;99.90;;;;;;5015700;28;20056;-86
2022/06/11 01:19:31;;;;;;;7.78;4.35;;;16.20;99.90;;;;;;5001779;28;20083;-85
2022/06/11 01:22:28;;;;;;;5.97;4.43;;;16.10;99.90;;;;;;4999628;28;20053;-85
2022/06/11 01:25:32;;;;;;;9.10;4.22;;;16.10;99.90;;;;;;5001981;28;20137;-86
2022/06/11 01:28:26;;;;;;;10.85;4.63;;;16.10;99.90;;;;;;4999311;28;20083;-87
2022/06/11 01:31:20;;;;;;;6.57;4.00;;;16.10;99.90;;;;;;5015876;28;20046;-86
2022/06/11 01:33:49;;;;;;;5.57;3.35;;;16.10;99.90;;;;;;4999234;28;20358;-86
2022/06/11 01:36:28;;;;;;;5.82;3.83;;;16.10;99.90;;;;;;5015515;28;20498;-87
2022/06/11 01:39:01;;;;;;;11.40;4.07;;;16.10;99.90;;;;;;4999208;28;20072;-85
2022/06/11 01:41:57;;;;;;;7.50;3.92;;;16.10;99.90;;;;;;4998472;28;20049;-86
2022/06/11 01:44:28;;;;;;;8.95;3.63;;;16.00;99.90;;;;;;5001790;28;20085;-86
2022/06/11 01:46:54;;;;;;;9.25;3.95;;;16.10;99.90;;;;;;5033967;28;20054;-88
2022/06/11 01:49:20;;;;;;;9.73;3.97;;;16.10;99.90;;;;;;5034317;28;20071;-88
2022/06/11 01:52:04;;;;;;;8.27;4.00;;;16.10;99.90;;;;;;5053612;28;20068;-86
2022/06/11 01:54:46;;;;;;;8.00;3.67;;;16.10;99.90;;;;;;5000207;28;20045;-86
2022/06/11 01:57:17;;;;;;;8.82;3.97;;;16.10;99.90;;;;;;4968407;28;20061;-85
2022/06/11 02:00:02;;;;;;;7.90;3.88;;;16.00;99.90;;;;;;5015788;28;20037;-86
2022/06/11 02:02:37;;;;;;;5.90;3.78;;;15.90;99.90;;;;;;5024745;28;20038;-85
2022/06/11 02:05:23;;;;;;;5.28;3.60;;;15.80;99.90;;;;;;4995618;28;20095;-86
2022/06/11 02:08:17;;;;;;;9.30;4.72;;;15.80;99.90;;;;;;5011544;28;20046;-86
2022/06/11 02:10:59;;;;;;;6.33;3.57;;;15.70;99.90;;;;;;4981706;28;20104;-85
2022/06/11 02:13:38;;;;;;;7.15;4.03;;;15.60;99.90;;;;;;4979321;28;20386;-86
2022/06/11 02:16:13;;;;;;;12.55;5.80;;;15.50;99.90;;;;;;4979291;28;20065;-85
2022/06/11 02:18:39;;;;;;;11.65;5.05;;;15.40;99.90;;;;;;4979309;28;20140;-85
2022/06/11 02:21:09;;;;;;;12.00;4.72;;;15.40;99.90;;;;;;4995289;28;20129;-85
2022/06/11 02:23:39;;;;;;;10.70;5.20;;;15.30;99.90;;;;;;4979085;28;20545;-85
2022/06/11 02:26:11;;;;;;;12.57;4.95;;;15.30;99.90;;;;;;4978969;28;20405;-86
2022/06/11 02:28:39;;;;;;;9.65;5.38;;;15.30;99.90;;;;;;4979044;28;20081;-86
2022/06/11 02:31:06;;;;;;;13.60;5.28;;;15.30;99.90;;;;;;4979525;28;20046;-86
2022/06/11 02:33:33;;;;;;;10.20;5.35;;;15.30;99.90;;;;;;4978788;28;20042;-86
2022/06/11 02:36:15;;;;;;;11.43;5.85;;;15.30;99.90;;;;;;4995570;28;20366;-86
2022/06/11 02:38:41;;;;;;;11.95;5.70;;;15.20;99.90;;;;;;4979198;28;20049;-86
2022/06/11 02:41:11;;;;;;;11.27;6.50;;;15.20;99.90;;;;;;4979371;28;20058;-86
2022/06/11 02:43:36;;;;;;;11.30;6.80;;;15.30;99.90;;;;;;4979831;28;20483;-87
2022/06/11 02:46:40;;;;;;;11.95;7.07;;;15.30;99.90;;;;;;4995852;28;20089;-85
2022/06/11 02:48:48;;;;;;;12.85;7.40;;;15.30;99.90;;;;;;4981972;28;20443;-86
2022/06/11 02:51:14;;;;;;;16.55;8.63;;;15.40;99.90;;;;;;4995566;28;20076;-86
2022/06/11 02:53:39;;;;;;;19.25;10.20;;;15.40;99.90;;;;;;4979006;28;20424;-85
2022/06/11 02:56:05;;;;;;;17.83;11.50;;;15.30;99.90;;;;;;5012720;28;20429;-87
2022/06/11 02:58:31;;;;;;;16.27;11.18;;;15.30;99.90;;;;;;4994561;28;20057;-86
2022/06/11 03:00:57;;;;;;;21.40;11.68;;;15.30;99.90;;;;;;5011594;28;20073;-86
2022/06/11 03:03:23;;;;;;;14.27;10.90;;;15.30;99.90;;;;;;4995017;28;20065;-86
2022/06/11 03:05:48;;;;;;;15.25;11.27;;;15.30;99.90;;;;;;4980003;28;20046;-86
2022/06/11 03:08:14;;;;;;;20.08;12.70;;;15.30;99.90;;;;;;5020429;28;20049;-87
2022/06/11 03:10:40;;;;;;;18.05;11.00;;;15.30;99.90;;;;;;5036619;28;20045;-87
2022/06/11 03:13:05;;;;;;;19.65;10.60;;;15.30;99.90;;;;;;5003324;28;20053;-87
2022/06/11 03:15:31;;;;;;;17.42;11.20;;;15.30;99.90;;;;;;4986880;28;20041;-86
2022/06/11 03:17:57;;;;;;;19.65;10.68;;;15.40;99.90;;;;;;4998193;28;20058;-87
2022/06/11 03:20:24;;;;;;;15.70;10.13;;;15.30;99.90;;;;;;4966577;28;20425;-86
2022/06/11 03:22:50;;;;;;;19.40;10.32;;;15.30;99.90;;;;;;4982006;28;20049;-85
2022/06/11 03:25:16;;;;;;;20.83;11.00;;;15.30;99.90;;;;;;5015755;28;20041;-85
2022/06/11 03:27:42;;;;;;;16.92;10.90;;;15.20;99.90;;;;;;4981713;28;20050;-86
2022/06/11 03:30:09;;;;;;;17.15;10.52;;;15.20;99.90;;;;;;4990216;28;20044;-88
2022/06/11 03:32:34;;;;;;;16.50;11.30;;;15.20;99.90;;;;;;4987450;28;20060;-86
2022/06/11 03:35:00;;;;;;;17.10;11.65;;;15.20;99.90;;;;;;4999593;28;20636;-87
2022/06/11 03:37:26;;;;;;;23.15;12.00;;;15.30;99.90;;;;;;5015575;28;20054;-88
2022/06/11 03:39:51;;;;;;;15.30;10.93;;;15.30;99.90;;;;;;4998337;28;20050;-86
2022/06/11 03:42:17;;;;;;;18.05;10.50;;;15.30;99.90;;;;;;4997802;28;20049;-85
2022/06/11 03:44:43;;;;;;;16.25;10.55;;;15.40;99.90;;;;;;4997593;28;20489;-87
2022/06/11 03:47:09;;;;;;;19.27;10.82;;;15.30;99.90;;;;;;4981513;28;20470;-86
2022/06/11 03:49:35;;;;;;;18.58;11.52;;;15.30;99.90;;;;;;4984385;28;20081;-85
2022/06/11 03:52:00;;;;;;;18.08;10.48;;;15.30;99.90;;;;;;4987328;28;20046;-85
2022/06/11 03:54:26;;;;;;;18.48;11.32;;;15.40;99.90;;;;;;4986908;28;20057;-86
2022/06/11 03:56:52;;;;;;;18.48;11.32;;;15.30;99.90;;;;;;5003133;28;20056;-84
2022/06/11 03:59:18;;;;;;;18.52;11.13;;;15.40;99.90;;;;;;4985447;28;20103;-85
2022/06/11 04:01:44;;;;;;;19.25;11.02;;;15.40;99.90;;;;;;4982496;28;20054;-86
2022/06/11 04:04:11;;;;;;;20.73;11.60;;;15.40;99.90;;;;;;4981412;28;20053;-85
2022/06/11 04:06:45;;;;;;;18.80;12.35;;;15.40;99.90;;;;;;4997415;28;20046;-87
2022/06/11 04:09:12;;;;;;;;;;;15.30;99.90;;;;;;4983155;28;20051;-86
2022/06/11 04:11:38;;;;;;;18.08;12.30;;;15.30;99.90;;;;;;4982472;28;19917;-85
2022/06/11 04:14:03;;;;;;;18.00;12.02;;;15.30;99.90;;;;;;5016025;28;20034;-85
2022/06/11 04:16:35;;;;;;;22.15;13.88;;;15.30;99.90;;;;;;4982397;28;20041;-84
2022/06/11 04:19:02;;;;;;;17.90;13.02;;;15.50;99.90;;;;;;4982264;28;20050;-85
2022/06/11 04:21:28;;;;;;;18.52;12.80;;;15.50;99.90;;;;;;4998248;28;20093;-85
2022/06/11 04:23:55;;;;;;;16.52;12.82;;;15.60;99.90;;;;;;4998082;28;20400;-85
2022/06/11 04:26:24;;;;;;;19.23;12.32;;;15.60;99.90;;;;;;5002955;28;20050;-85
2022/06/11 04:28:50;;;;;;;25.77;13.82;;;15.60;99.90;;;;;;5003696;28;20046;-88
2022/06/11 04:31:16;;;;;;;17.60;11.55;;;15.60;99.90;;;;;;5005310;28;20026;-88
2022/06/11 04:33:43;;;;;;;20.30;11.80;;;15.70;99.90;;;;;;5004494;28;20500;-86
2022/06/11 04:36:08;;;;;;;21.95;12.68;;;15.80;99.90;;;;;;4983429;28;20133;-86
2022/06/11 04:38:34;;;;;;;17.45;10.30;;;16.00;99.90;;;;;;5015081;28;20124;-86
2022/06/11 04:41:00;;;;;;;21.30;11.30;;;16.50;99.90;;;;;;5014715;28;20061;-86
2022/06/11 04:43:26;;;;;;;14.30;9.70;;;17.20;99.90;;;;;;5000623;28;20092;-86
2022/06/11 04:45:51;;;;;;;14.65;9.05;;;17.90;99.90;;;;;;4996679;28;20046;-86
2022/06/11 04:48:17;;;;;;;16.25;8.20;;;18.50;99.90;;;;;;4996234;28;20049;-85
2022/06/11 04:50:43;;;;;;;19.02;8.48;;;18.80;99.90;;;;;;4980822;28;20048;-87
2022/06/11 04:53:08;;;;;;;13.07;7.45;;;19.10;99.90;;;;;;4980880;28;20077;-87
2022/06/11 04:55:34;;;;;;;13.32;7.25;;;19.40;99.90;;;;;;4997710;28;20054;-86
2022/06/11 04:57:59;;;;;;;13.30;6.75;;;19.10;99.90;;;;;;4996294;28;20084;-87
2022/06/11 05:00:27;;;;;;;10.95;6.70;;;19.00;99.90;;;;;;4980850;28;20124;-86
2022/06/11 05:02:53;;;;;;;13.55;7.25;;;19.30;99.90;;;;;;4980273;28;20050;-86
2022/06/11 05:05:19;;;;;;;11.52;6.40;;;19.30;99.90;;;;;;4996381;28;20058;-86
2022/06/11 05:07:45;;;;;;;13.65;6.63;;;19.70;99.90;;;;;;4980326;28;20466;-87
2022/06/11 05:10:11;;;;;;;10.48;5.90;;;19.80;99.90;;;;;;4980435;28;20037;-85
2022/06/11 05:12:37;;;;;;;12.98;6.10;;;19.60;99.90;;;;;;5012501;28;20046;-86
2022/06/11 05:15:03;;;;;;;14.38;6.43;;;20.10;99.90;;;;;;5003148;28;20038;-85
2022/06/11 05:17:29;;;;;;;15.60;5.55;;;20.70;99.90;;;;;;4979915;28;20050;-86
2022/06/11 05:19:54;;;;;;;9.02;4.55;;;20.50;99.90;;;;;;4995620;28;20436;-86
2022/06/11 05:22:20;;;;;;;14.32;5.30;;;20.30;99.90;;;;;;4979679;28;20100;-86
2022/06/11 05:24:46;;;;;;;12.88;4.93;;;20.40;99.90;;;;;;4995837;28;20041;-86
2022/06/11 05:27:19;;;;;;;12.18;5.00;;;20.90;99.90;;;;;;4980470;28;20073;-86
2022/06/11 05:29:48;;;;;;;10.00;4.35;;;20.60;99.90;;;;;;4979258;28;20049;-86
2022/06/11 05:32:16;;;;;;;9.55;4.18;;;20.60;99.90;;;;;;4979986;28;20468;-86
2022/06/11 05:34:42;;;;;;;15.85;4.60;;;20.90;99.90;;;;;;4980492;28;20548;-85
2022/06/11 05:37:08;;;;;;;11.73;4.00;;;20.90;99.90;;;;;;4980196;28;20383;-87
2022/06/11 05:39:33;;;;;;;14.55;4.10;;;21.30;99.90;;;;;;4996580;28;20056;-86
2022/06/11 05:41:59;;;;;;;11.30;4.30;;;21.40;99.90;;;;;;4980396;28;20482;-87
2022/06/11 05:44:25;;;;;;;12.80;4.15;;;21.50;99.90;;;;;;5014003;28;20103;-87
2022/06/11 05:46:52;;;;;;;15.07;4.35;;;21.60;99.90;;;;;;4980240;28;20089;-87
2022/06/11 05:49:20;;;;;;;13.35;4.00;;;21.70;99.90;;;;;;5010336;28;20069;-88
2022/06/11 05:51:47;;;;;;;12.93;4.57;;;21.70;99.90;;;;;;4999348;28;20089;-93
2022/06/11 05:54:18;;;;;;;12.55;4.75;;;21.30;99.90;;;;;;5000453;28;20057;-88
2022/06/11 05:56:44;;;;;;;16.65;4.10;;;21.50;99.90;;;;;;5005957;28;20465;-87
2022/06/11 05:59:13;;;;;;;15.35;4.22;;;22.20;99.90;;;;;;4997187;28;20042;-86
2022/06/11 06:01:39;;;;;;;13.27;4.13;;;22.40;99.90;;;;;;4980209;28;20450;-86
2022/06/11 06:04:11;;;;;;;15.38;4.05;;;23.00;99.90;;;;;;4996743;28;20050;-88
2022/06/11 06:06:37;;;;;;;15.10;4.00;;;22.70;99.90;;;;;;4980970;28;20042;-86
2022/06/11 06:09:02;;;;;;;16.77;4.60;;;22.80;99.90;;;;;;4996097;28;20057;-86
2022/06/11 06:11:28;;;;;;;13.38;3.67;;;22.50;99.90;;;;;;5011304;28;20051;-86
2022/06/11 06:13:56;;;;;;;18.35;4.28;;;22.00;99.90;;;;;;4979486;28;20064;-86
2022/06/11 06:16:23;;;;;;;17.25;4.40;;;22.40;99.90;;;;;;4995722;28;20160;-86
2022/06/11 06:18:49;;;;;;;15.88;4.85;;;22.80;99.90;;;;;;4981321;28;20042;-90
2022/06/11 06:21:16;;;;;;;15.23;3.78;;;21.80;99.90;;;;;;4982587;28;20056;-87
2022/06/11 06:23:41;;;;;;;17.95;4.60;;;23.00;99.90;;;;;;4980342;28;20068;-87
2022/06/11 06:26:07;;;;;;;15.35;4.30;;;22.80;99.90;;;;;;5012416;28;20046;-87
2022/06/11 06:28:34;;;;;;;17.65;5.60;;;22.80;99.90;;;;;;4979379;28;20053;-87
2022/06/11 06:31:00;;;;;;;17.58;5.45;;;22.80;99.90;;;;;;4979296;28;20489;-88
2022/06/11 06:33:27;;;;;;;21.25;4.57;;;22.30;99.90;;;;;;4996006;28;20042;-90
2022/06/11 06:35:55;;;;;;;15.95;5.20;;;21.70;99.90;;;;;;4980065;28;20553;-90
2022/06/11 06:38:21;;;;;;;15.05;4.35;;;21.80;99.90;;;;;;4989527;28;20469;-89
2022/06/11 06:40:47;;;;;;;19.02;4.85;;;22.20;99.90;;;;;;4999768;28;20041;-89
2022/06/11 06:43:12;;;;;;;15.80;4.32;;;22.40;99.90;;;;;;5018421;28;20508;-89
2022/06/11 06:45:38;;;;;;;16.52;4.53;;;23.00;99.90;;;;;;5019515;28;20492;-89
2022/06/11 06:48:04;;;;;;;20.58;5.00;;;23.50;99.90;;;;;;5002475;28;20378;-89
2022/06/11 06:50:30;;;;;;;15.52;4.45;;;23.20;99.90;;;;;;5004308;28;20038;-88
2022/06/11 06:52:55;;;;;;;17.95;4.70;;;23.50;99.90;;;;;;5021757;28;20346;-90
2022/06/11 06:55:21;;;;;;;22.20;4.82;;;23.20;99.90;;;;;;4982855;28;20470;-90
2022/06/11 06:57:47;;;;;;;17.40;4.47;;;23.50;99.90;;;;;;5037742;28;20034;-91
2022/06/11 07:00:15;;;;;;;17.40;4.85;;;23.40;99.90;;;;;;4995956;28;20072;-88
2022/06/11 07:02:41;;;;;;;17.98;4.80;;;22.90;99.90;;;;;;5018552;28;20041;-89
2022/06/11 07:05:08;;;;;;;16.10;4.97;;;22.90;99.90;;;;;;5000920;28;20033;-90
2022/06/11 07:07:35;;;;;;;18.80;5.35;;;23.10;99.90;;;;;;4983374;28;20037;-89
2022/06/11 07:10:01;;;;;;;18.35;4.70;;;22.70;99.90;;;;;;5026886;28;20052;-90
2022/06/11 07:12:26;;;;;;;18.42;5.07;;;22.30;99.90;;;;;;5007937;28;20021;-89
2022/06/11 07:14:52;;;;;;;21.17;5.50;;;23.00;99.90;;;;;;5008948;28;20037;-91
2022/06/11 07:17:18;;;;;;;19.85;4.57;;;23.20;99.90;;;;;;5012434;28;20076;-89
2022/06/11 07:20:02;;;;;;;16.05;4.40;;;23.80;99.90;;;;;;4987344;28;20068;-89
2022/06/11 07:22:34;;;;;;;21.08;5.40;;;23.40;99.90;;;;;;4991029;28;20037;-89
2022/06/11 07:25:00;;;;;;;16.37;4.43;;;23.50;99.90;;;;;;4984187;28;20077;-87
2022/06/11 07:27:27;;;;;;;16.80;4.63;;;24.20;99.90;;;;;;5031640;28;20299;-90
2022/06/11 07:29:56;;;;;;;17.90;5.28;;;24.00;99.90;;;;;;4992443;28;20049;-90
2022/06/11 07:32:25;;;;;;;21.63;5.38;;;23.80;99.90;;;;;;5003322;28;20049;-89
2022/06/11 07:34:50;;;;;;;18.77;5.00;;;24.50;99.90;;;;;;4986732;28;20041;-91
2022/06/11 07:37:16;;;;;;;19.75;5.10;;;24.10;99.90;;;;;;5001509;28;20046;-89
2022/06/11 07:39:43;;;;;;;20.08;5.00;;;22.90;99.90;;;;;;5002200;28;20053;-90
2022/06/11 07:42:10;;;;;;;15.68;4.47;;;23.30;99.90;;;;;;5001275;28;20045;-90
2022/06/11 07:44:36;;;;;;;19.45;5.30;;;23.80;99.90;;;;;;5001933;28;20041;-89
2022/06/11 07:47:02;;;;;;;19.63;4.80;;;24.00;99.90;;;;;;5002556;28;20048;-89
2022/06/11 07:49:28;;;;;;;17.77;4.85;;;24.20;99.90;;;;;;5001547;28;20045;-90
2022/06/11 07:51:54;;;;;;;17.33;5.57;;;24.70;99.90;;;;;;5000933;28;20055;-89
2022/06/11 07:54:20;;;;;;;20.48;5.47;;;25.10;99.90;;;;;;5001018;28;20041;-90
2022/06/11 07:56:46;;;;;;;18.77;5.00;;;25.50;99.90;;;;;;5001390;28;20052;-88
2022/06/11 07:59:11;;;;;;;19.33;5.05;;;25.80;99.90;;;;;;5001073;28;20049;-90
2022/06/11 08:01:37;;;;;;;18.33;5.18;;;24.60;99.90;;;;;;5018591;28;20060;-91
2022/06/11 08:04:03;;;;;;;24.10;5.20;;;24.90;99.90;;;;;;5018753;28;20132;-91
2022/06/11 08:06:29;;;;;;;15.98;4.53;;;24.40;99.90;;;;;;5017941;28;20042;-88
2022/06/11 08:08:54;;;;;;;20.02;6.07;;;25.10;99.90;;;;;;5002130;28;20049;-91
2022/06/11 08:11:20;;;;;;;16.02;4.53;;;25.70;99.90;;;;;;4984976;28;20049;-87
2022/06/11 08:13:48;;;;;;;17.70;4.68;;;25.30;99.90;;;;;;5001081;28;20099;-90
2022/06/11 08:16:17;;;;;;;17.95;4.97;;;25.40;99.90;;;;;;5017550;28;20052;-89
2022/06/11 08:18:46;;;;;;;17.02;4.63;;;25.70;99.90;;;;;;4984919;28;20037;-89
2022/06/11 08:21:13;;;;;;;19.75;5.57;;;25.60;99.90;;;;;;4996745;28;20062;-90
2022/06/11 08:23:42;;;;;;;16.45;4.70;;;25.20;99.90;;;;;;5012457;28;20045;-89
2022/06/11 08:26:08;;;;;;;16.27;4.70;;;25.40;99.90;;;;;;4985008;28;20045;-88
2022/06/11 08:28:35;;;;;;;14.73;4.47;;;24.90;99.90;;;;;;4996517;28;20119;-89
2022/06/11 08:31:04;;;;;;;16.50;4.20;;;24.50;99.90;;;;;;4995631;28;20041;-92
2022/06/11 08:33:31;;;;;;;18.48;4.85;;;24.70;99.90;;;;;;5003966;28;20100;-91
2022/06/11 08:35:57;;;;;;;17.90;4.75;;;25.40;99.90;;;;;;5005646;28;20125;-89
2022/06/11 08:38:23;;;;;;;19.63;4.57;;;24.80;99.90;;;;;;4978766;28;20033;-91
2022/06/11 08:40:53;;;;;;;17.48;4.50;;;24.70;99.90;;;;;;5000735;28;20041;-90
2022/06/11 08:43:27;;;;;;;19.98;4.60;;;23.80;99.90;;;;;;4993065;28;20064;-92
2022/06/11 08:45:55;;;;;;;17.10;4.70;;;23.80;99.90;;;;;;5001530;28;20053;-91
2022/06/11 08:48:33;;;;;;;20.30;5.38;;;23.60;99.90;;;;;;4990172;28;20076;-93
2022/06/11 08:51:14;;;;;;;18.05;4.20;;;23.20;99.90;;;;;;4992545;28;20072;-94
2022/06/11 08:53:40;;;;;;;16.77;5.60;;;23.40;99.90;;;;;;5002053;28;20470;-93
2022/06/11 08:56:09;;;;;;;15.52;4.65;;;23.00;99.90;;;;;;4985528;28;20048;-95
2022/06/11 08:58:48;;;;;;;14.73;4.00;;;23.70;99.90;;;;;;4985503;28;20111;-93
2022/06/11 09:01:17;;;;;;;19.60;4.38;;;23.00;99.90;;;;;;4982826;28;20053;-94
2022/06/11 09:03:52;;;;;;;16.05;4.82;;;23.80;99.90;;;;;;5012622;28;20045;-92
2022/06/11 09:06:38;;;;;;;17.30;4.40;;;23.80;99.90;;;;;;5003567;28;20045;-92
2022/06/11 09:09:33;;;;;;;21.92;6.22;;;24.40;99.90;;;;;;5012953;28;20049;-92
2022/06/11 09:12:19;;;;;;;15.55;4.38;;;23.80;99.90;;;;;;4999487;28;20045;-90
2022/06/11 09:15:31;;;;;;;17.05;5.32;;;23.00;99.90;;;;;;4982961;28;20444;-91
2022/06/11 09:18:25;;;;;;;15.70;4.68;;;22.10;99.90;;;;;;4965537;28;20048;-90
2022/06/11 09:21:03;;;;;;;14.52;4.38;;;23.50;99.90;;;;;;4998546;28;20033;-90
2022/06/11 09:23:58;;;;;;;14.73;4.38;;;23.70;99.90;;;;;;4998961;28;20037;-91
2022/06/11 09:26:43;;;;;;;20.23;4.72;;;25.00;99.90;;;;;;4998260;28;20045;-90
2022/06/11 09:29:33;;;;;;;18.60;4.85;;;24.90;99.90;;;;;;5015693;28;20041;-90
2022/06/11 09:32:00;;;;;;;19.25;4.97;;;25.00;99.90;;;;;;5015232;28;20053;-89
2022/06/11 09:34:31;;;;;;;17.88;4.20;;;24.40;99.90;;;;;;4998978;28;20125;-91
2022/06/11 09:37:04;;;;;;;17.63;5.03;;;24.90;99.90;;;;;;4979191;28;20061;-85
2022/06/11 09:39:44;;;;;;;18.20;4.37;;;24.70;99.90;;;;;;5024489;28;20052;-91
2022/06/11 09:42:42;;;;;;;14.98;4.10;;;24.80;99.90;;;;;;5014717;28;20045;-90
2022/06/11 09:45:24;;;;;;;14.20;4.00;;;25.30;99.90;;;;;;5013267;28;20175;-91
2022/06/11 09:48:09;;;;;;;13.63;3.55;;;25.80;99.90;;;;;;4997036;28;20473;-90
2022/06/11 09:50:48;;;;;;;12.35;3.35;;;26.20;99.90;;;;;;4969483;28;20117;-89
2022/06/11 09:53:30;;;;;;;13.00;3.80;;;26.10;99.90;;;;;;5035885;28;20096;-91
2022/06/11 09:56:07;;;;;;;13.77;4.07;;;27.80;99.90;;;;;;5038390;28;20105;-92
2022/06/11 09:58:50;;;;;;;14.93;3.50;;;26.70;99.90;;;;;;5016234;28;20396;-91
2022/06/11 10:01:28;;;;;;;11.70;3.38;;;26.70;99.90;;;;;;4984101;28;20496;-90
2022/06/11 10:04:01;;;;;;;11.38;3.47;;;26.70;99.90;;;;;;4967034;28;20366;-90
2022/06/11 10:06:34;;;;;;;11.23;3.47;;;25.40;99.90;;;;;;4981974;28;20041;-90
2022/06/11 10:09:01;;;;;;;11.35;3.10;;;25.50;99.90;;;;;;4964646;28;20465;-91
2022/06/11 10:11:44;;;;;;;10.23;3.30;;;25.30;99.90;;;;;;4982196;28;20045;-90
2022/06/11 10:14:29;;;;;;;11.02;3.33;;;25.40;99.90;;;;;;4983362;28;20054;-87
2022/06/11 10:17:15;;;;;;;15.18;3.45;;;25.30;99.90;;;;;;4970851;28;20452;-90
2022/06/11 10:19:44;;;;;;;11.40;3.13;;;24.60;99.90;;;;;;4997961;28;20045;-91
2022/06/11 10:22:38;;;;;;;10.20;3.05;;;24.20;99.90;;;;;;4997564;28;20398;-90
2022/06/11 10:25:18;;;;;;;12.55;3.95;;;24.00;99.90;;;;;;5014590;28;20049;-90
2022/06/11 10:27:55;;;;;;;13.23;3.40;;;23.90;99.90;;;;;;4998704;28;20580;-90
2022/06/11 10:30:31;;;;;;;12.20;3.00;;;24.60;99.90;;;;;;5001091;28;20144;-91
2022/06/11 10:32:57;;;;;;;12.68;3.40;;;23.90;99.90;;;;;;5008772;28;20124;-90
2022/06/11 10:35:30;;;;;;;9.35;3.15;;;23.80;99.90;;;;;;4966033;28;20140;-90
2022/06/11 10:38:04;;;;;;;11.10;2.88;;;24.50;99.90;;;;;;4963847;28;20049;-90
2022/06/11 10:40:37;;;;;;;;;;;24.30;99.90;;;;;;5002445;28;20084;-89
2022/06/11 10:43:22;;;;;;;12.37;2.90;;;23.80;99.90;;;;;;5020224;28;19943;-90
2022/06/11 10:45:48;;;;;;;12.07;2.90;;;24.00;99.90;;;;;;5001956;28;20280;-89
2022/06/11 10:48:19;;;;;;;10.70;3.17;;;24.00;99.90;;;;;;4998176;28;20049;-89
2022/06/11 10:50:45;;;;;;;12.15;3.00;;;24.50;99.90;;;;;;4981916;28;20517;-90
2022/06/11 10:53:19;;;;;;;12.38;3.20;;;24.20;99.90;;;;;;4982019;28;20120;-90
2022/06/11 10:56:05;;;;;;;10.48;3.72;;;24.30;99.90;;;;;;5031971;28;20084;-89
2022/06/11 10:58:32;;;;;;;12.00;3.90;;;25.10;99.90;;;;;;4984422;28;20145;-89
2022/06/11 11:01:17;;;;;;;13.07;3.25;;;24.30;99.90;;;;;;5016677;28;20052;-88
2022/06/11 11:03:50;;;;;;;10.70;3.30;;;24.10;99.90;;;;;;5043268;28;20041;-88
2022/06/11 11:06:27;;;;;;;15.45;3.83;;;24.30;99.90;;;;;;5010700;28;20046;-89
2022/06/11 11:08:58;;;;;;;9.32;3.28;;;24.60;99.90;;;;;;5000116;28;20102;-89
2022/06/11 11:11:25;;;;;;;10.90;3.60;;;25.30;99.90;;;;;;5020463;28;20037;-90
2022/06/11 11:13:50;;;;;;;14.40;3.65;;;25.70;99.90;;;;;;5019925;28;20080;-90
2022/06/11 11:16:22;;;;;;;15.18;3.60;;;25.70;99.90;;;;;;5018890;28;20048;-88
2022/06/11 11:19:17;;;;;;;13.05;3.70;;;25.70;99.90;;;;;;5020250;28;20448;-91
2022/06/11 11:22:06;;;;;;;13.88;3.30;;;24.60;99.90;;;;;;4997163;28;20049;-91
2022/06/11 11:24:37;;;;;;;10.45;3.05;;;24.30;99.90;;;;;;4990750;28;20070;-90
2022/06/11 11:27:12;;;;;;;12.15;3.25;;;24.30;99.90;;;;;;4995870;28;20404;-89
2022/06/11 11:29:59;;;;;;;12.55;3.30;;;24.50;99.90;;;;;;4986642;28;20070;-89
2022/06/11 11:32:33;;;;;;;12.93;3.33;;;24.80;99.90;;;;;;4970639;28;20053;-89
2022/06/11 11:35:16;;;;;;;9.85;3.10;;;24.50;99.90;;;;;;5012213;28;20088;-90
2022/06/11 11:37:42;;;;;;;14.53;3.10;;;24.60;99.90;;;;;;4999668;28;20080;-90
2022/06/11 11:40:33;;;;;;;11.27;3.53;;;24.50;99.90;;;;;;4985091;28;20285;-90
2022/06/11 11:43:08;;;;;;;11.75;3.67;;;24.00;99.90;;;;;;4979446;28;20049;-90
2022/06/11 11:45:40;;;;;;;14.82;3.53;;;23.80;99.90;;;;;;4982721;28;20497;-88
2022/06/11 11:48:07;;;;;;;11.40;2.97;;;24.10;99.90;;;;;;4998897;28;20045;-90
2022/06/11 11:50:35;;;;;;;15.13;4.07;;;24.40;99.90;;;;;;4966672;28;20295;-88
2022/06/11 11:53:23;;;;;;;12.50;3.33;;;24.90;99.90;;;;;;5000013;28;20099;-88
2022/06/11 11:56:00;;;;;;;11.85;3.10;;;24.80;99.90;;;;;;4999412;28;20085;-91
2022/06/11 11:58:28;;;;;;;11.50;3.63;;;24.40;99.90;;;;;;4982272;28;20060;-90
2022/06/11 12:00:59;;;;;;;11.30;3.08;;;24.20;99.90;;;;;;5003401;28;20450;-89
2022/06/11 12:03:30;;;;;;;11.57;3.55;;;24.40;99.90;;;;;;5002426;28;20129;-88
2022/06/11 12:05:57;;;;;;;14.30;3.30;;;24.40;99.90;;;;;;5000021;28;20041;-89
2022/06/11 12:08:43;;;;;;;11.38;3.22;;;24.80;99.90;;;;;;4981763;28;20120;-88
2022/06/11 12:11:27;;;;;;;9.20;3.10;;;24.60;99.90;;;;;;4997609;28;20489;-88
2022/06/11 12:14:01;;;;;;;11.63;3.08;;;24.80;99.90;;;;;;4983489;28;20044;-87
2022/06/11 12:16:35;;;;;;;18.30;3.28;;;24.50;99.90;;;;;;5003232;28;20072;-88
2022/06/11 12:19:09;;;;;;;9.75;3.45;;;24.60;99.90;;;;;;5009654;28;20113;-89
2022/06/11 12:21:36;;;;;;;10.73;3.47;;;24.10;99.90;;;;;;4998128;28;20130;-88
2022/06/11 12:24:24;;;;;;;9.40;3.15;;;23.70;99.90;;;;;;4981026;28;20046;-87
2022/06/11 12:26:52;;;;;;;9.95;3.08;;;23.40;99.90;;;;;;4987577;28;20037;-88
2022/06/11 12:29:27;;;;;;;14.95;3.75;;;23.40;99.90;;;;;;5000859;28;20084;-89
2022/06/11 12:31:54;;;;;;;11.38;2.92;;;23.30;99.90;;;;;;5014534;28;20144;-90
2022/06/11 12:34:22;;;;;;;9.32;2.67;;;22.90;99.90;;;;;;4989783;28;20079;-89
2022/06/11 12:37:04;;;;;;;13.35;3.15;;;23.30;99.90;;;;;;5005806;28;20025;-90
2022/06/11 12:40:04;;;;;;;13.27;3.78;;;23.70;99.90;;;;;;5006266;28;20045;-92
2022/06/11 12:42:44;;;;;;;11.82;3.20;;;23.80;99.90;;;;;;4996440;28;20049;-90
2022/06/11 12:45:35;;;;;;;10.70;3.05;;;23.80;99.90;;;;;;5000436;28;20477;-89
2022/06/11 12:48:22;;;;;;;13.88;3.35;;;23.80;99.90;;;;;;5016548;28;20041;-88
2022/06/11 12:51:06;;;;;;;12.95;3.13;;;23.50;99.90;;;;;;4999929;28;20041;-90
2022/06/11 12:53:44;;;;;;;14.07;3.33;;;23.30;99.90;;;;;;5000675;28;20038;-88
2022/06/11 12:56:36;;;;;;;14.77;3.20;;;22.90;99.90;;;;;;5000296;28;20079;-89
2022/06/11 12:59:06;;;;;;;12.50;3.47;;;23.40;99.90;;;;;;5014987;28;20484;-89
2022/06/11 13:01:43;;;;;;;13.38;3.35;;;23.60;99.90;;;;;;4978200;28;20124;-88